This is the latest recevied weather packets stored in our database for station/object DL9SEC-13. If no packets are shown the sender has not sent any weather packets the latest 10 day(s).
| Time | Temp. | Humidity | Pressure | Rain* | Wind** | Luminosity | Snow |
|---|---|---|---|---|---|---|---|
| 1777320603 | 12.22° C | 54% | 1021.5 hPa | 0 mm | - | - | - |
| 1777319703 | 12.78° C | 54% | 1021.5 hPa | 0 mm | - | - | - |
| 1777318803 | 12.78° C | 53% | 1021.6 hPa | 0 mm | - | - | - |
| 1777317903 | 13.33° C | 52% | 1021.6 hPa | 0 mm | - | - | - |
| 1777317004 | 13.33° C | 52% | 1021.4 hPa | 0 mm | - | - | - |
| 1777316104 | 13.89° C | 52% | 1021.4 hPa | 0 mm | - | - | - |
| 1777315203 | 15° C | 48% | 1021.3 hPa | 0 mm | - | - | - |
| 1777314303 | 16.11° C | 44% | 1021.2 hPa | 0 mm | - | - | - |
| 1777313403 | 17.22° C | 42% | 1021.1 hPa | 0 mm | - | - | - |
| 1777312502 | 18.89° C | 37% | 1021 hPa | 0 mm | - | - | - |
| 1777311603 | 20.56° C | 32% | 1021 hPa | 0 mm | - | - | - |
| 1777310703 | 21.67° C | 29% | 1021 hPa | 0 mm | - | - | - |
| 1777309803 | 21.67° C | 28% | 1020.9 hPa | 0 mm | - | - | - |
| 1777308903 | 22.22° C | 27% | 1021 hPa | 0 mm | - | - | - |
| 1777308003 | 22.78° C | 25% | 1021 hPa | 0 mm | - | - | - |
| 1777307103 | 22.22° C | 26% | 1021.2 hPa | 0 mm | - | - | - |
| 1777306203 | 22.22° C | 27% | 1021.3 hPa | 0 mm | - | - | - |
| 1777305303 | 21.11° C | 26% | 1021.4 hPa | 0 mm | - | - | - |
| 1777304403 | 21.67° C | 26% | 1021.4 hPa | 0 mm | - | - | - |
| 1777303503 | 22.22° C | 24% | 1021.4 hPa | 0 mm | - | - | - |
| 1777302603 | 22.78° C | 25% | 1021.6 hPa | 0 mm | - | - | - |
| 1777301704 | 23.33° C | 26% | 1021.6 hPa | 0 mm | - | - | - |
| 1777300803 | 21.67° C | 25% | 1021.9 hPa | 0 mm | - | - | - |
| 1777299904 | 22.22° C | 25% | 1022 hPa | 0 mm | - | - | - |
| 1777299003 | 22.22° C | 25% | 1022.1 hPa | 0 mm | - | - | - |
* Rain latest hour (hover to see other rain measurements)
** Current wind speed in m/s (hover to see current wind gust speed)